sensor_id;sensor_type;location;lat;lon;timestamp;pressure;altitude;pressure_sealevel;temperature;humidity
31717;BME280;18301;51.076;17.046;2023-05-03T00:04:27;100993.09;;;13.66;66.14
31717;BME280;18301;51.076;17.046;2023-05-03T00:09:29;100993.22;;;13.29;66.53
31717;BME280;18301;51.076;17.046;2023-05-03T00:14:30;101000.38;;;13.17;65.80
31717;BME280;18301;51.076;17.046;2023-05-03T00:19:32;100991.03;;;13.34;64.50
31717;BME280;18301;51.076;17.046;2023-05-03T00:24:34;101008.28;;;12.96;65.27
31717;BME280;18301;51.076;17.046;2023-05-03T00:29:36;101011.06;;;13.07;63.70
31717;BME280;18301;51.076;17.046;2023-05-03T00:34:37;101013.19;;;13.15;62.80
31717;BME280;18301;51.076;17.046;2023-05-03T00:39:39;101011.19;;;13.06;63.09
31717;BME280;18301;51.076;17.046;2023-05-03T00:44:40;101008.53;;;12.93;63.27
31717;BME280;18301;51.076;17.046;2023-05-03T00:49:42;101019.13;;;12.96;63.60
31717;BME280;18301;51.076;17.046;2023-05-03T00:54:44;101016.69;;;13.04;63.49
31717;BME280;18301;51.076;17.046;2023-05-03T00:59:46;101013.03;;;13.05;63.85
31717;BME280;18301;51.076;17.046;2023-05-03T01:04:48;101015.25;;;13.11;63.57
31717;BME280;18301;51.076;17.046;2023-05-03T01:10:03;101020.66;;;12.87;63.52
31717;BME280;18301;51.076;17.046;2023-05-03T01:15:15;101038.00;;;12.85;63.40
31717;BME280;18301;51.076;17.046;2023-05-03T01:20:21;101047.56;;;12.78;62.95
31717;BME280;18301;51.076;17.046;2023-05-03T01:25:25;101049.09;;;12.69;62.52
31717;BME280;18301;51.076;17.046;2023-05-03T01:30:27;101047.25;;;12.70;62.21
31717;BME280;18301;51.076;17.046;2023-05-03T01:35:40;101045.75;;;12.40;62.95
31717;BME280;18301;51.076;17.046;2023-05-03T01:40:51;101053.22;;;12.36;63.21
31717;BME280;18301;51.076;17.046;2023-05-03T01:45:53;101053.66;;;12.43;62.44
31717;BME280;18301;51.076;17.046;2023-05-03T01:50:54;101061.66;;;12.57;62.33
31717;BME280;18301;51.076;17.046;2023-05-03T01:55:56;101063.84;;;12.52;61.61
31717;BME280;18301;51.076;17.046;2023-05-03T02:00:57;101064.81;;;12.51;61.58
31717;BME280;18301;51.076;17.046;2023-05-03T02:05:59;101066.63;;;12.12;62.42
31717;BME280;18301;51.076;17.046;2023-05-03T02:11:00;101067.09;;;12.32;62.44
31717;BME280;18301;51.076;17.046;2023-05-03T02:16:02;101078.38;;;12.26;63.32
31717;BME280;18301;51.076;17.046;2023-05-03T02:21:03;101065.34;;;12.05;63.37
31717;BME280;18301;51.076;17.046;2023-05-03T02:26:06;101064.59;;;12.16;63.18
31717;BME280;18301;51.076;17.046;2023-05-03T02:31:08;101071.41;;;11.96;61.07
31717;BME280;18301;51.076;17.046;2023-05-03T02:36:09;101066.13;;;11.67;60.76
31717;BME280;18301;51.076;17.046;2023-05-03T02:41:11;101071.38;;;11.29;61.63
31717;BME280;18301;51.076;17.046;2023-05-03T02:46:12;101080.41;;;11.15;61.93
31717;BME280;18301;51.076;17.046;2023-05-03T02:51:14;101096.25;;;10.93;62.50
31717;BME280;18301;51.076;17.046;2023-05-03T02:56:15;101093.53;;;10.93;62.51
31717;BME280;18301;51.076;17.046;2023-05-03T03:01:17;101094.38;;;11.07;62.26
31717;BME280;18301;51.076;17.046;2023-05-03T03:06:18;101095.28;;;10.79;62.77
31717;BME280;18301;51.076;17.046;2023-05-03T03:11:20;101085.03;;;10.99;62.36
31717;BME280;18301;51.076;17.046;2023-05-03T03:16:22;101094.31;;;10.95;62.25
31717;BME280;18301;51.076;17.046;2023-05-03T03:21:24;101104.19;;;10.81;62.53
31717;BME280;18301;51.076;17.046;2023-05-03T03:26:25;101104.44;;;10.77;62.72
31717;BME280;18301;51.076;17.046;2023-05-03T03:31:27;101102.94;;;10.87;62.62
31717;BME280;18301;51.076;17.046;2023-05-03T03:36:28;101107.63;;;10.55;63.31
31717;BME280;18301;51.076;17.046;2023-05-03T03:41:32;101108.91;;;10.35;63.85
31717;BME280;18301;51.076;17.046;2023-05-03T03:46:33;101110.13;;;10.29;64.11
31717;BME280;18301;51.076;17.046;2023-05-03T03:51:35;101115.59;;;10.28;64.20
31717;BME280;18301;51.076;17.046;2023-05-03T03:56:36;101116.84;;;10.22;64.91
31717;BME280;18301;51.076;17.046;2023-05-03T04:01:38;101125.34;;;10.30;64.38
31717;BME280;18301;51.076;17.046;2023-05-03T04:06:39;101124.41;;;10.31;64.31
31717;BME280;18301;51.076;17.046;2023-05-03T04:11:41;101126.53;;;10.41;63.49
31717;BME280;18301;51.076;17.046;2023-05-03T04:16:43;101135.50;;;10.11;64.38
31717;BME280;18301;51.076;17.046;2023-05-03T04:21:44;101142.06;;;10.21;64.39
31717;BME280;18301;51.076;17.046;2023-05-03T04:26:46;101154.16;;;9.84;65.53
31717;BME280;18301;51.076;17.046;2023-05-03T04:31:47;101153.75;;;9.91;65.36
31717;BME280;18301;51.076;17.046;2023-05-03T04:36:49;101152.84;;;10.21;64.87
31717;BME280;18301;51.076;17.046;2023-05-03T04:41:51;101160.84;;;9.93;64.86
31717;BME280;18301;51.076;17.046;2023-05-03T04:46:52;101164.91;;;10.00;64.85
31717;BME280;18301;51.076;17.046;2023-05-03T04:51:54;101159.19;;;10.36;64.31
31717;BME280;18301;51.076;17.046;2023-05-03T04:56:56;101165.00;;;10.73;63.13
31717;BME280;18301;51.076;17.046;2023-05-03T05:01:58;101169.94;;;10.95;62.36
31717;BME280;18301;51.076;17.046;2023-05-03T05:07:00;101172.06;;;11.04;61.74
31717;BME280;18301;51.076;17.046;2023-05-03T05:12:01;101183.72;;;11.19;61.92
31717;BME280;18301;51.076;17.046;2023-05-03T05:17:04;101181.81;;;11.62;60.66
31717;BME280;18301;51.076;17.046;2023-05-03T05:22:05;101189.34;;;11.57;60.12
31717;BME280;18301;51.076;17.046;2023-05-03T05:27:07;101190.03;;;11.61;59.94
31717;BME280;18301;51.076;17.046;2023-05-03T05:32:09;101203.84;;;11.42;60.14
31717;BME280;18301;51.076;17.046;2023-05-03T05:37:10;101207.50;;;11.55;59.76
31717;BME280;18301;51.076;17.046;2023-05-03T05:42:12;101206.38;;;11.72;59.49
31717;BME280;18301;51.076;17.046;2023-05-03T05:47:13;101208.22;;;11.86;59.42
31717;BME280;18301;51.076;17.046;2023-05-03T05:52:15;101222.34;;;11.77;59.32
31717;BME280;18301;51.076;17.046;2023-05-03T05:57:17;101230.25;;;11.65;59.47
31717;BME280;18301;51.076;17.046;2023-05-03T06:02:18;101241.88;;;11.94;59.45
31717;BME280;18301;51.076;17.046;2023-05-03T06:07:23;101249.59;;;12.01;59.53
31717;BME280;18301;51.076;17.046;2023-05-03T06:12:26;101249.50;;;12.02;58.69
31717;BME280;18301;51.076;17.046;2023-05-03T06:17:27;101258.53;;;12.42;57.92
31717;BME280;18301;51.076;17.046;2023-05-03T06:22:29;101261.16;;;12.44;57.65
31717;BME280;18301;51.076;17.046;2023-05-03T06:27:30;101264.59;;;12.46;58.47
31717;BME280;18301;51.076;17.046;2023-05-03T06:32:32;101268.38;;;12.43;57.89
31717;BME280;18301;51.076;17.046;2023-05-03T06:37:34;101264.34;;;12.36;58.06
31717;BME280;18301;51.076;17.046;2023-05-03T06:42:36;101271.38;;;12.66;57.92
31717;BME280;18301;51.076;17.046;2023-05-03T06:47:37;101261.63;;;12.76;56.32
31717;BME280;18301;51.076;17.046;2023-05-03T06:52:43;101258.19;;;12.87;56.79
31717;BME280;18301;51.076;17.046;2023-05-03T06:57:44;101269.34;;;13.08;56.89
31717;BME280;18301;51.076;17.046;2023-05-03T07:02:48;101270.97;;;13.36;56.03
31717;BME280;18301;51.076;17.046;2023-05-03T07:07:50;101280.53;;;13.29;54.32
31717;BME280;18301;51.076;17.046;2023-05-03T07:12:51;101266.75;;;13.06;54.87
31717;BME280;18301;51.076;17.046;2023-05-03T07:17:53;101277.53;;;13.33;54.10
31717;BME280;18301;51.076;17.046;2023-05-03T07:22:54;101275.53;;;13.23;52.90
31717;BME280;18301;51.076;17.046;2023-05-03T07:27:56;101270.13;;;13.35;52.95
31717;BME280;18301;51.076;17.046;2023-05-03T07:32:57;101260.13;;;13.62;52.31
31717;BME280;18301;51.076;17.046;2023-05-03T07:37:59;101269.03;;;13.88;52.71
31717;BME280;18301;51.076;17.046;2023-05-03T07:43:00;101257.75;;;14.18;52.97
31717;BME280;18301;51.076;17.046;2023-05-03T07:48:02;101260.94;;;14.36;51.52
31717;BME280;18301;51.076;17.046;2023-05-03T07:53:04;101257.06;;;14.51;49.32
31717;BME280;18301;51.076;17.046;2023-05-03T07:58:06;101264.22;;;14.04;47.90
31717;BME280;18301;51.076;17.046;2023-05-03T08:03:07;101258.53;;;14.31;47.86
31717;BME280;18301;51.076;17.046;2023-05-03T08:08:09;101245.22;;;14.99;48.45
31717;BME280;18301;51.076;17.046;2023-05-03T08:13:10;101246.47;;;15.17;46.69
31717;BME280;18301;51.076;17.046;2023-05-03T08:18:12;101240.50;;;14.89;45.73
31717;BME280;18301;51.076;17.046;2023-05-03T08:23:13;101242.03;;;15.27;45.42
31717;BME280;18301;51.076;17.046;2023-05-03T08:28:19;101241.53;;;15.56;42.89
31717;BME280;18301;51.076;17.046;2023-05-03T08:33:20;101250.94;;;15.74;43.14
31717;BME280;18301;51.076;17.046;2023-05-03T08:38:22;101255.97;;;15.00;42.61
31717;BME280;18301;51.076;17.046;2023-05-03T08:43:26;101254.31;;;14.86;44.08
31717;BME280;18301;51.076;17.046;2023-05-03T08:48:28;101258.84;;;15.21;42.66
31717;BME280;18301;51.076;17.046;2023-05-03T08:53:31;101261.31;;;15.13;42.77
31717;BME280;18301;51.076;17.046;2023-05-03T08:58:34;101265.03;;;15.57;42.29
31717;BME280;18301;51.076;17.046;2023-05-03T09:03:36;101264.41;;;15.53;41.11
31717;BME280;18301;51.076;17.046;2023-05-03T09:08:41;101264.47;;;14.95;42.14
31717;BME280;18301;51.076;17.046;2023-05-03T09:13:43;101268.03;;;14.85;41.32
31717;BME280;18301;51.076;17.046;2023-05-03T09:18:55;101273.88;;;14.91;42.70
31717;BME280;18301;51.076;17.046;2023-05-03T09:23:57;101265.00;;;15.01;43.08
31717;BME280;18301;51.076;17.046;2023-05-03T09:29:03;101261.03;;;14.93;42.82
31717;BME280;18301;51.076;17.046;2023-05-03T09:34:21;101264.53;;;15.18;42.84
31717;BME280;18301;51.076;17.046;2023-05-03T09:39:25;101269.25;;;15.72;42.55
31717;BME280;18301;51.076;17.046;2023-05-03T09:44:47;101266.97;;;15.88;41.18
31717;BME280;18301;51.076;17.046;2023-05-03T09:49:49;101261.84;;;15.74;41.76
31717;BME280;18301;51.076;17.046;2023-05-03T09:54:51;101259.69;;;15.66;40.66
31717;BME280;18301;51.076;17.046;2023-05-03T09:59:54;101264.22;;;16.11;40.84
31717;BME280;18301;51.076;17.046;2023-05-03T10:04:56;101248.44;;;15.94;40.10
31717;BME280;18301;51.076;17.046;2023-05-03T10:09:59;101253.16;;;15.69;40.92
31717;BME280;18301;51.076;17.046;2023-05-03T10:15:04;101251.19;;;15.71;41.54
31717;BME280;18301;51.076;17.046;2023-05-03T10:25:23;101246.81;;;16.34;40.18
31717;BME280;18301;51.076;17.046;2023-05-03T10:35:28;101246.53;;;16.17;39.36
31717;BME280;18301;51.076;17.046;2023-05-03T10:40:40;101244.53;;;16.51;39.78
31717;BME280;18301;51.076;17.046;2023-05-03T10:45:42;101241.66;;;16.85;38.90
31717;BME280;18301;51.076;17.046;2023-05-03T10:50:44;101246.41;;;17.13;38.22
31717;BME280;18301;51.076;17.046;2023-05-03T10:56:01;101242.78;;;16.50;39.31
31717;BME280;18301;51.076;17.046;2023-05-03T11:01:05;101241.72;;;15.98;39.35
31717;BME280;18301;51.076;17.046;2023-05-03T11:06:09;101238.84;;;15.67;40.14
31717;BME280;18301;51.076;17.046;2023-05-03T11:11:11;101245.88;;;16.13;39.25
31717;BME280;18301;51.076;17.046;2023-05-03T11:16:12;101230.75;;;15.88;39.05
31717;BME280;18301;51.076;17.046;2023-05-03T11:21:14;101236.28;;;15.98;39.03
31717;BME280;18301;51.076;17.046;2023-05-03T11:26:16;101240.00;;;15.97;38.96
31717;BME280;18301;51.076;17.046;2023-05-03T11:31:19;101233.53;;;16.09;39.03
31717;BME280;18301;51.076;17.046;2023-05-03T11:36:21;101234.59;;;16.82;38.66
31717;BME280;18301;51.076;17.046;2023-05-03T11:41:23;101240.25;;;16.05;37.77
31717;BME280;18301;51.076;17.046;2023-05-03T11:46:26;101237.34;;;15.52;39.34
31717;BME280;18301;51.076;17.046;2023-05-03T11:51:29;101225.03;;;15.91;39.13
31717;BME280;18301;51.076;17.046;2023-05-03T11:56:31;101224.75;;;16.17;38.16
31717;BME280;18301;51.076;17.046;2023-05-03T12:01:35;101232.09;;;16.58;36.90
31717;BME280;18301;51.076;17.046;2023-05-03T12:06:37;101229.00;;;16.84;36.82
31717;BME280;18301;51.076;17.046;2023-05-03T12:11:41;101227.00;;;17.07;38.16
31717;BME280;18301;51.076;17.046;2023-05-03T12:16:49;101222.69;;;17.35;36.81
31717;BME280;18301;51.076;17.046;2023-05-03T12:21:52;101218.69;;;16.66;37.59
31717;BME280;18301;51.076;17.046;2023-05-03T12:27:13;101219.63;;;16.23;37.93
31717;BME280;18301;51.076;17.046;2023-05-03T12:32:19;101226.91;;;15.79;38.38
31717;BME280;18301;51.076;17.046;2023-05-03T12:37:23;101219.63;;;16.23;38.93
31717;BME280;18301;51.076;17.046;2023-05-03T12:42:28;101216.94;;;16.12;37.55
31717;BME280;18301;51.076;17.046;2023-05-03T12:47:34;101209.00;;;16.20;38.28
31717;BME280;18301;51.076;17.046;2023-05-03T12:52:37;101199.06;;;16.19;37.95
31717;BME280;18301;51.076;17.046;2023-05-03T12:57:39;101187.69;;;16.46;37.83
31717;BME280;18301;51.076;17.046;2023-05-03T13:02:45;101185.66;;;16.80;37.04
31717;BME280;18301;51.076;17.046;2023-05-03T13:07:50;101192.88;;;16.70;37.59
31717;BME280;18301;51.076;17.046;2023-05-03T13:12:57;101190.09;;;16.61;36.77
31717;BME280;18301;51.076;17.046;2023-05-03T13:17:59;101185.63;;;16.39;37.55
31717;BME280;18301;51.076;17.046;2023-05-03T13:23:03;101176.06;;;16.65;38.46
31717;BME280;18301;51.076;17.046;2023-05-03T13:28:04;101172.84;;;17.02;37.73
31717;BME280;18301;51.076;17.046;2023-05-03T13:33:06;101166.13;;;17.06;36.70
31717;BME280;18301;51.076;17.046;2023-05-03T13:38:08;101162.75;;;16.93;38.48
31717;BME280;18301;51.076;17.046;2023-05-03T13:43:10;101154.25;;;17.17;37.62
31717;BME280;18301;51.076;17.046;2023-05-03T13:48:11;101151.41;;;17.18;36.41
31717;BME280;18301;51.076;17.046;2023-05-03T13:53:19;101155.75;;;17.31;36.38
31717;BME280;18301;51.076;17.046;2023-05-03T13:58:21;101143.28;;;17.38;35.61
31717;BME280;18301;51.076;17.046;2023-05-03T14:03:22;101142.50;;;17.16;36.70
31717;BME280;18301;51.076;17.046;2023-05-03T14:08:24;101138.16;;;17.14;36.13
31717;BME280;18301;51.076;17.046;2023-05-03T14:13:27;101135.94;;;17.29;36.86
31717;BME280;18301;51.076;17.046;2023-05-03T14:18:35;101136.75;;;17.19;36.28
31717;BME280;18301;51.076;17.046;2023-05-03T14:23:36;101144.22;;;17.17;35.73
31717;BME280;18301;51.076;17.046;2023-05-03T14:28:38;101136.31;;;17.24;35.12
31717;BME280;18301;51.076;17.046;2023-05-03T14:33:39;101147.31;;;17.03;36.99
31717;BME280;18301;51.076;17.046;2023-05-03T14:38:41;101143.72;;;17.02;36.31
31717;BME280;18301;51.076;17.046;2023-05-03T14:43:42;101134.59;;;16.83;36.51
31717;BME280;18301;51.076;17.046;2023-05-03T14:48:44;101140.34;;;16.68;36.15
31717;BME280;18301;51.076;17.046;2023-05-03T14:53:45;101142.75;;;16.62;35.95
31717;BME280;18301;51.076;17.046;2023-05-03T14:58:47;101136.66;;;16.48;36.04
31717;BME280;18301;51.076;17.046;2023-05-03T15:03:48;101148.16;;;16.52;36.45
31717;BME280;18301;51.076;17.046;2023-05-03T15:08:50;101142.75;;;16.41;36.94
31717;BME280;18301;51.076;17.046;2023-05-03T15:13:52;101149.59;;;16.56;37.53
31717;BME280;18301;51.076;17.046;2023-05-03T15:18:54;101152.59;;;16.74;37.27
31717;BME280;18301;51.076;17.046;2023-05-03T15:23:55;101149.06;;;16.62;36.34
31717;BME280;18301;51.076;17.046;2023-05-03T15:28:58;101144.94;;;16.47;36.45
31717;BME280;18301;51.076;17.046;2023-05-03T15:34:00;101135.47;;;16.41;37.48
31717;BME280;18301;51.076;17.046;2023-05-03T15:39:03;101144.16;;;16.56;37.44
31717;BME280;18301;51.076;17.046;2023-05-03T15:44:04;101140.19;;;16.60;37.04
31717;BME280;18301;51.076;17.046;2023-05-03T15:49:08;101148.94;;;16.43;36.87
31717;BME280;18301;51.076;17.046;2023-05-03T15:54:09;101144.94;;;16.47;37.26
31717;BME280;18301;51.076;17.046;2023-05-03T15:59:11;101144.50;;;16.42;37.06
31717;BME280;18301;51.076;17.046;2023-05-03T16:04:15;101133.00;;;16.17;37.33
31717;BME280;18301;51.076;17.046;2023-05-03T16:09:16;101137.78;;;16.25;37.71
31717;BME280;18301;51.076;17.046;2023-05-03T16:14:19;101136.69;;;16.16;37.72
31717;BME280;18301;51.076;17.046;2023-05-03T16:19:22;101138.03;;;16.22;38.26
31717;BME280;18301;51.076;17.046;2023-05-03T16:24:24;101144.44;;;16.11;37.37
31717;BME280;18301;51.076;17.046;2023-05-03T16:29:26;101139.06;;;15.88;37.80
31717;BME280;18301;51.076;17.046;2023-05-03T16:34:28;101145.00;;;15.82;38.35
31717;BME280;18301;51.076;17.046;2023-05-03T16:39:29;101143.34;;;15.59;38.58
31717;BME280;18301;51.076;17.046;2023-05-03T16:44:31;101133.22;;;15.50;38.71
31717;BME280;18301;51.076;17.046;2023-05-03T16:49:33;101141.88;;;15.55;38.68
31717;BME280;18301;51.076;17.046;2023-05-03T16:54:35;101131.50;;;15.49;38.94
31717;BME280;18301;51.076;17.046;2023-05-03T16:59:38;101140.78;;;15.35;39.28
31717;BME280;18301;51.076;17.046;2023-05-03T17:04:39;101135.09;;;15.27;39.26
31717;BME280;18301;51.076;17.046;2023-05-03T17:09:41;101130.81;;;15.13;38.48
31717;BME280;18301;51.076;17.046;2023-05-03T17:14:43;101137.97;;;15.03;39.22
31717;BME280;18301;51.076;17.046;2023-05-03T17:19:44;101136.97;;;14.92;39.38
31717;BME280;18301;51.076;17.046;2023-05-03T17:24:45;101132.78;;;14.88;39.41
31717;BME280;18301;51.076;17.046;2023-05-03T17:29:47;101132.53;;;14.91;39.16
31717;BME280;18301;51.076;17.046;2023-05-03T17:34:48;101131.41;;;14.71;39.54
31717;BME280;18301;51.076;17.046;2023-05-03T17:39:50;101140.94;;;14.66;39.74
31717;BME280;18301;51.076;17.046;2023-05-03T17:44:51;101138.28;;;14.53;40.13
31717;BME280;18301;51.076;17.046;2023-05-03T17:49:55;101139.19;;;14.54;40.04
31717;BME280;18301;51.076;17.046;2023-05-03T17:54:56;101138.97;;;14.44;40.36
31717;BME280;18301;51.076;17.046;2023-05-03T17:59:58;101142.56;;;14.33;40.70
31717;BME280;18301;51.076;17.046;2023-05-03T18:04:59;101139.56;;;14.25;40.82
31717;BME280;18301;51.076;17.046;2023-05-03T18:10:03;101146.44;;;14.18;41.06
31717;BME280;18301;51.076;17.046;2023-05-03T18:15:09;101150.50;;;14.12;41.12
31717;BME280;18301;51.076;17.046;2023-05-03T18:20:11;101157.25;;;14.07;41.33
31717;BME280;18301;51.076;17.046;2023-05-03T18:25:13;101159.19;;;13.93;41.69
31717;BME280;18301;51.076;17.046;2023-05-03T18:30:15;101158.66;;;13.88;42.07
31717;BME280;18301;51.076;17.046;2023-05-03T18:35:17;101157.94;;;13.86;42.24
31717;BME280;18301;51.076;17.046;2023-05-03T18:40:18;101159.34;;;13.79;42.49
31717;BME280;18301;51.076;17.046;2023-05-03T18:45:20;101167.22;;;13.71;42.98
31717;BME280;18301;51.076;17.046;2023-05-03T18:50:21;101169.16;;;13.69;43.60
31717;BME280;18301;51.076;17.046;2023-05-03T18:55:23;101171.13;;;13.67;43.66
31717;BME280;18301;51.076;17.046;2023-05-03T19:00:25;101175.28;;;13.59;44.63
31717;BME280;18301;51.076;17.046;2023-05-03T19:05:27;101174.09;;;13.51;45.50
31717;BME280;18301;51.076;17.046;2023-05-03T19:10:29;101171.44;;;13.38;46.08
31717;BME280;18301;51.076;17.046;2023-05-03T19:15:30;101173.84;;;13.30;47.00
31717;BME280;18301;51.076;17.046;2023-05-03T19:20:32;101189.00;;;13.20;47.01
31717;BME280;18301;51.076;17.046;2023-05-03T19:25:33;101185.13;;;13.11;46.74
31717;BME280;18301;51.076;17.046;2023-05-03T19:30:34;101195.53;;;13.04;46.15
31717;BME280;18301;51.076;17.046;2023-05-03T19:35:37;101196.06;;;13.09;46.38
31717;BME280;18301;51.076;17.046;2023-05-03T19:40:39;101197.28;;;13.05;46.92
31717;BME280;18301;51.076;17.046;2023-05-03T19:45:41;101192.09;;;13.02;47.61
31717;BME280;18301;51.076;17.046;2023-05-03T19:50:43;101190.56;;;12.98;48.25
31717;BME280;18301;51.076;17.046;2023-05-03T19:55:58;101198.25;;;12.92;48.49
31717;BME280;18301;51.076;17.046;2023-05-03T20:01:00;101196.09;;;12.84;48.83
31717;BME280;18301;51.076;17.046;2023-05-03T20:06:02;101192.72;;;12.67;48.97
31717;BME280;18301;51.076;17.046;2023-05-03T20:11:03;101186.09;;;12.59;49.62
31717;BME280;18301;51.076;17.046;2023-05-03T20:16:05;101189.91;;;12.56;49.80
31717;BME280;18301;51.076;17.046;2023-05-03T20:21:06;101187.72;;;12.49;50.17
31717;BME280;18301;51.076;17.046;2023-05-03T20:26:08;101176.47;;;12.42;50.38
31717;BME280;18301;51.076;17.046;2023-05-03T20:31:09;101176.22;;;12.32;50.66
31717;BME280;18301;51.076;17.046;2023-05-03T20:36:12;101170.59;;;12.23;51.46
31717;BME280;18301;51.076;17.046;2023-05-03T20:41:14;101184.31;;;12.19;52.08
31717;BME280;18301;51.076;17.046;2023-05-03T20:46:18;101180.50;;;12.09;52.55
31717;BME280;18301;51.076;17.046;2023-05-03T20:51:19;101184.78;;;11.99;52.82
31717;BME280;18301;51.076;17.046;2023-05-03T20:56:21;101183.47;;;11.92;53.02
31717;BME280;18301;51.076;17.046;2023-05-03T21:01:22;101175.19;;;11.81;53.42
31717;BME280;18301;51.076;17.046;2023-05-03T21:06:24;101187.22;;;11.62;54.09
31717;BME280;18301;51.076;17.046;2023-05-03T21:11:27;101190.66;;;11.37;54.44
31717;BME280;18301;51.076;17.046;2023-05-03T21:16:28;101176.06;;;11.40;54.89
31717;BME280;18301;51.076;17.046;2023-05-03T21:21:30;101174.72;;;11.33;55.35
31717;BME280;18301;51.076;17.046;2023-05-03T21:26:31;101168.84;;;11.26;55.60
31717;BME280;18301;51.076;17.046;2023-05-03T21:31:33;101170.88;;;11.22;55.84
31717;BME280;18301;51.076;17.046;2023-05-03T21:36:34;101167.59;;;11.17;56.26
31717;BME280;18301;51.076;17.046;2023-05-03T21:41:37;101168.09;;;11.10;56.85
31717;BME280;18301;51.076;17.046;2023-05-03T21:46:41;101161.56;;;10.99;57.31
31717;BME280;18301;51.076;17.046;2023-05-03T21:51:43;101167.22;;;10.95;57.51
31717;BME280;18301;51.076;17.046;2023-05-03T21:56:45;101165.13;;;10.86;57.63
31717;BME280;18301;51.076;17.046;2023-05-03T22:01:46;101169.91;;;10.80;58.14
31717;BME280;18301;51.076;17.046;2023-05-03T22:06:49;101167.97;;;10.68;58.18
31717;BME280;18301;51.076;17.046;2023-05-03T22:11:50;101169.63;;;10.56;58.88
31717;BME280;18301;51.076;17.046;2023-05-03T22:16:52;101172.91;;;10.47;58.92
31717;BME280;18301;51.076;17.046;2023-05-03T22:21:54;101170.75;;;10.38;59.18
31717;BME280;18301;51.076;17.046;2023-05-03T22:26:56;101170.44;;;10.28;59.80
31717;BME280;18301;51.076;17.046;2023-05-03T22:31:58;101162.28;;;10.14;60.34
31717;BME280;18301;51.076;17.046;2023-05-03T22:37:00;101159.66;;;10.12;60.60
31717;BME280;18301;51.076;17.046;2023-05-03T22:42:02;101146.97;;;10.14;60.66
31717;BME280;18301;51.076;17.046;2023-05-03T22:47:04;101165.06;;;10.12;61.00
31717;BME280;18301;51.076;17.046;2023-05-03T22:52:05;101158.13;;;10.08;61.24
31717;BME280;18301;51.076;17.046;2023-05-03T22:57:09;101157.63;;;10.02;61.42
31717;BME280;18301;51.076;17.046;2023-05-03T23:02:10;101159.63;;;9.98;61.74
31717;BME280;18301;51.076;17.046;2023-05-03T23:07:12;101168.94;;;9.93;61.58
31717;BME280;18301;51.076;17.046;2023-05-03T23:12:13;101146.00;;;9.85;62.28
31717;BME280;18301;51.076;17.046;2023-05-03T23:17:15;101150.97;;;9.77;62.01
31717;BME280;18301;51.076;17.046;2023-05-03T23:22:16;101150.38;;;9.72;62.30
31717;BME280;18301;51.076;17.046;2023-05-03T23:27:18;101141.41;;;9.72;62.21
31717;BME280;18301;51.076;17.046;2023-05-03T23:32:20;101146.97;;;9.68;62.87
31717;BME280;18301;51.076;17.046;2023-05-03T23:37:22;101139.19;;;9.64;62.83
31717;BME280;18301;51.076;17.046;2023-05-03T23:42:23;101142.06;;;9.61;62.41
31717;BME280;18301;51.076;17.046;2023-05-03T23:47:24;101136.66;;;9.61;62.79
31717;BME280;18301;51.076;17.046;2023-05-03T23:52:26;101132.75;;;9.51;63.01
31717;BME280;18301;51.076;17.046;2023-05-03T23:57:27;101134.69;;;9.49;63.34
